Angelica, Pennsylvania
Current Conditions -  °F | °C
As of 5:54 AM on Sunday 21 Dec 2014 (Local Time) from KRDG Reporting Station
Overcast Overcast  
Wind Chill: 24°   Ceiling: 3400
Heat Index: 30°   Visibility: 10mi
Dew Point: 23°   Wind: 6mph
Humidity: 75%   Direction: 300°WNW
Pressure: 30.29"   Gusts: NA
Location:  40.2411°N, 75.9752°W
Report Text: KRDG 211054Z AUTO 30005KT 10SM OVC034 M01/M05 A3029 RMK AO2 SLP264 T10111050
Loading
Personal Weather Stations






























Interactive Weather Map New forecast layout! Learn more

10-Day Weather Forecast

Advertisements
Track Severe Weather on mobile